Time;durP1;ratioP1;P1;durP2;ratioP2;P2;SDS_P1;SDS_P2;PMS_P1;PMS_P2;Temp;Humidity;BMP_temperature;BMP_pressure;BME280_temperature;BME280_humidity;BME280_pressure;Samples;Min_cycle;Max_cycle;Signal;HPM_P1;HPM_P2
2021/09/07 00:01:13;;;;;;;38.55;21.92;;;14.30;99.90;;;;;;5008938;28;20030;-60
2021/09/07 00:03:38;;;;;;;42.45;22.17;;;14.30;99.90;;;;;;5009182;28;20033;-61
2021/09/07 00:06:04;;;;;;;41.97;22.92;;;14.30;99.90;;;;;;5008882;28;20042;-60
2021/09/07 00:08:30;;;;;;;38.67;21.35;;;14.30;99.90;;;;;;5008387;28;20111;-62
2021/09/07 00:10:55;;;;;;;35.88;20.52;;;14.30;99.90;;;;;;5008957;28;20087;-62
2021/09/07 00:13:21;;;;;;;33.13;20.08;;;14.30;99.90;;;;;;5008618;28;20417;-58
2021/09/07 00:15:46;;;;;;;43.47;21.75;;;14.30;99.90;;;;;;5009384;28;20030;-60
2021/09/07 00:18:12;;;;;;;35.08;19.55;;;14.30;99.90;;;;;;5009537;28;21025;-60
2021/09/07 00:20:38;;;;;;;40.45;21.73;;;14.30;99.90;;;;;;5012123;28;20030;-61
2021/09/07 00:23:03;;;;;;;44.22;20.63;;;14.30;99.90;;;;;;5012625;28;20033;-60
2021/09/07 00:25:29;;;;;;;38.35;20.50;;;14.30;99.90;;;;;;5012483;28;20030;-59
2021/09/07 00:27:54;;;;;;;38.03;21.50;;;14.30;99.90;;;;;;5011478;28;20036;-61
2021/09/07 00:30:20;;;;;;;44.67;21.15;;;14.30;99.90;;;;;;5012007;28;20209;-60
2021/09/07 00:32:46;;;;;;;39.70;20.90;;;14.30;99.90;;;;;;5012077;28;20049;-61
2021/09/07 00:35:11;;;;;;;38.40;20.90;;;14.20;99.90;;;;;;5011873;28;20028;-61
2021/09/07 00:37:39;;;;;;;38.42;20.23;;;14.30;99.90;;;;;;5012183;28;20438;-62
2021/09/07 00:40:06;;;;;;;39.58;21.35;;;14.30;99.90;;;;;;5012181;28;20105;-57
2021/09/07 00:42:34;;;;;;;37.30;21.20;;;14.20;99.90;;;;;;5011580;28;20034;-61
2021/09/07 00:45:01;;;;;;;39.03;20.70;;;14.30;99.90;;;;;;5011974;28;20456;-61
2021/09/07 00:47:26;;;;;;;38.70;22.25;;;14.30;99.90;;;;;;5012110;28;20131;-61
2021/09/07 00:49:52;;;;;;;40.25;21.65;;;14.20;99.90;;;;;;5011623;28;20136;-60
2021/09/07 00:52:19;;;;;;;39.90;22.48;;;14.30;99.90;;;;;;5011259;28;20409;-62
2021/09/07 00:54:47;;;;;;;39.00;23.33;;;14.20;99.90;;;;;;5011886;28;20025;-58
2021/09/07 00:57:13;;;;;;;40.90;22.30;;;14.20;99.90;;;;;;5011419;28;20045;-59
2021/09/07 00:59:38;;;;;;;45.90;22.45;;;14.20;99.90;;;;;;5011622;28;20489;-58
2021/09/07 01:02:06;;;;;;;38.85;20.13;;;14.30;99.90;;;;;;5011285;28;20064;-61
2021/09/07 01:04:34;;;;;;;37.92;22.08;;;14.30;99.90;;;;;;5011804;28;20057;-60
2021/09/07 01:07:02;;;;;;;38.17;21.75;;;14.30;99.90;;;;;;5009286;28;20448;-61
2021/09/07 01:09:28;;;;;;;39.85;22.85;;;14.20;99.90;;;;;;5011296;28;20030;-59
2021/09/07 01:11:53;;;;;;;39.85;21.42;;;14.20;99.90;;;;;;5011125;28;20500;-59
2021/09/07 01:14:27;;;;;;;37.70;22.33;;;14.30;99.90;;;;;;5011461;28;20022;-62
2021/09/07 01:16:52;;;;;;;46.10;22.80;;;14.30;99.90;;;;;;5011107;28;20061;-60
2021/09/07 01:19:18;;;;;;;36.95;20.80;;;14.30;99.90;;;;;;5010419;28;20084;-60
2021/09/07 01:21:44;;;;;;;37.58;22.17;;;14.30;99.90;;;;;;5011161;28;20447;-62
2021/09/07 01:24:09;;;;;;;38.50;20.75;;;14.30;99.90;;;;;;5010875;28;20037;-61
2021/09/07 01:26:35;;;;;;;32.45;19.02;;;14.40;99.90;;;;;;5010517;28;20157;-59
2021/09/07 01:29:00;;;;;;;36.83;21.38;;;14.40;99.90;;;;;;5010531;28;20033;-61
2021/09/07 01:31:26;;;;;;;40.22;22.30;;;14.50;99.90;;;;;;5010615;28;20038;-60
2021/09/07 01:33:51;;;;;;;36.60;21.27;;;14.50;99.90;;;;;;5011147;28;20075;-59
2021/09/07 01:36:17;;;;;;;40.20;22.25;;;14.50;99.90;;;;;;5010137;28;20026;-58
2021/09/07 01:38:43;;;;;;;40.72;20.65;;;14.60;99.90;;;;;;5011009;28;20036;-62
2021/09/07 01:41:09;;;;;;;39.45;22.20;;;14.50;99.90;;;;;;5010462;28;20038;-60
2021/09/07 01:43:34;;;;;;;43.90;22.80;;;14.50;99.90;;;;;;5011169;28;20500;-61
2021/09/07 01:46:00;;;;;;;38.38;20.13;;;14.50;99.90;;;;;;5011436;28;20034;-60
2021/09/07 01:48:26;;;;;;;45.33;23.02;;;14.40;99.90;;;;;;5009440;28;20038;-59
2021/09/07 01:50:52;;;;;;;43.72;22.52;;;14.40;99.90;;;;;;5010522;28;20026;-62
2021/09/07 01:53:19;;;;;;;48.70;23.08;;;14.40;99.90;;;;;;5010929;28;20021;-61
2021/09/07 01:55:44;;;;;;;42.65;23.92;;;14.30;99.90;;;;;;5010916;28;20390;-59
2021/09/07 01:58:10;;;;;;;39.97;24.23;;;14.30;99.90;;;;;;5009688;28;20034;-61
2021/09/07 02:00:36;;;;;;;45.33;23.90;;;14.30;99.90;;;;;;5009874;28;20036;-60
2021/09/07 02:03:02;;;;;;;42.83;24.10;;;14.30;99.90;;;;;;5010372;28;20121;-61
2021/09/07 02:05:28;;;;;;;40.25;22.63;;;14.20;99.90;;;;;;5010418;28;20066;-61
2021/09/07 02:07:54;;;;;;;40.33;24.02;;;14.10;99.90;;;;;;5010110;28;20069;-62
2021/09/07 02:10:20;;;;;;;44.40;25.48;;;14.10;99.90;;;;;;5010627;28;20026;-61
2021/09/07 02:12:46;;;;;;;47.22;25.30;;;14.10;99.90;;;;;;5010128;28;20560;-60
2021/09/07 02:15:13;;;;;;;48.85;25.27;;;14.10;99.90;;;;;;5010314;28;20505;-61
2021/09/07 02:17:39;;;;;;;42.42;24.05;;;14.10;99.90;;;;;;5010442;28;20030;-58
2021/09/07 02:20:06;;;;;;;42.75;23.70;;;14.10;99.90;;;;;;5009536;28;21593;-58
2021/09/07 02:22:32;;;;;;;45.63;23.63;;;14.00;99.90;;;;;;5009891;28;20088;-61
2021/09/07 02:24:58;;;;;;;49.45;24.67;;;14.00;99.90;;;;;;5010230;28;20026;-60
2021/09/07 02:27:23;;;;;;;48.83;25.83;;;14.00;99.90;;;;;;5009545;28;20048;-61
2021/09/07 02:29:49;;;;;;;40.95;23.20;;;14.10;99.90;;;;;;5009886;28;20070;-62
2021/09/07 02:32:15;;;;;;;44.08;24.13;;;14.10;99.90;;;;;;5010113;28;20100;-61
2021/09/07 02:34:40;;;;;;;48.85;25.65;;;14.00;99.90;;;;;;5009271;28;20034;-61
2021/09/07 02:37:07;;;;;;;45.45;23.63;;;14.00;99.90;;;;;;5010000;28;20037;-60
2021/09/07 02:39:32;;;;;;;40.95;23.42;;;14.00;99.90;;;;;;5009795;28;20030;-61
2021/09/07 02:41:58;;;;;;;45.58;23.10;;;14.00;99.90;;;;;;5009284;28;20571;-60
2021/09/07 02:44:24;;;;;;;42.45;24.48;;;13.90;99.90;;;;;;5009634;28;20049;-62
2021/09/07 02:46:50;;;;;;;47.67;26.05;;;13.90;99.90;;;;;;5009985;28;20108;-62
2021/09/07 02:49:15;;;;;;;47.67;24.85;;;13.90;99.90;;;;;;5009991;28;20068;-61
2021/09/07 02:51:47;;;;;;;40.92;23.80;;;13.90;99.90;;;;;;5009191;28;20117;-60
2021/09/07 02:54:13;;;;;;;44.30;23.60;;;13.90;99.90;;;;;;5009949;28;20097;-61
2021/09/07 02:56:38;;;;;;;47.58;25.05;;;13.90;99.90;;;;;;5009277;28;20714;-58
2021/09/07 02:59:04;;;;;;;41.35;24.88;;;13.90;99.90;;;;;;5009450;28;20409;-59
2021/09/07 03:01:30;;;;;;;46.45;24.77;;;13.90;99.90;;;;;;5009551;28;20073;-60
2021/09/07 03:03:55;;;;;;;46.78;25.63;;;13.80;99.90;;;;;;5009195;28;20410;-61
2021/09/07 03:06:21;;;;;;;45.88;24.73;;;13.80;99.90;;;;;;5008791;28;20033;-61
2021/09/07 03:08:46;;;;;;;43.72;24.25;;;13.80;99.90;;;;;;5009639;28;20033;-62
2021/09/07 03:11:12;;;;;;;46.67;25.83;;;13.80;99.90;;;;;;5008821;28;20037;-62
2021/09/07 03:13:38;;;;;;;49.15;24.92;;;13.80;99.90;;;;;;5009632;28;20026;-61
2021/09/07 03:16:04;;;;;;;45.85;25.77;;;13.70;99.90;;;;;;5009693;28;20037;-61
2021/09/07 03:18:30;;;;;;;43.55;24.20;;;13.70;99.90;;;;;;5009388;28;20520;-62
2021/09/07 03:20:56;;;;;;;44.28;23.95;;;13.80;99.90;;;;;;5010044;28;20770;-62
2021/09/07 03:23:21;;;;;;;43.03;24.65;;;13.80;99.90;;;;;;5009593;28;20037;-61
2021/09/07 03:25:47;;;;;;;43.83;24.88;;;13.70;99.90;;;;;;5008506;28;20042;-61
2021/09/07 03:28:13;;;;;;;44.78;23.38;;;13.70;99.90;;;;;;5007444;28;20033;-62
2021/09/07 03:30:38;;;;;;;42.45;24.02;;;13.70;99.90;;;;;;5009249;28;20037;-61
2021/09/07 03:33:04;;;;;;;42.97;24.15;;;13.70;99.90;;;;;;5009484;28;20030;-61
2021/09/07 03:35:30;;;;;;;49.95;24.67;;;13.70;99.90;;;;;;5009982;28;20057;-61
2021/09/07 03:37:56;;;;;;;41.50;23.92;;;13.70;99.90;;;;;;5008474;28;20109;-59
2021/09/07 03:40:21;;;;;;;40.28;23.17;;;13.70;99.90;;;;;;5009458;28;20026;-60
2021/09/07 03:42:47;;;;;;;43.72;24.45;;;13.80;99.90;;;;;;5030478;23;20269;-61
2021/09/07 03:45:14;;;;;;;45.55;25.05;;;13.80;99.90;;;;;;5009459;28;20034;-61
2021/09/07 03:47:44;;;;;;;45.15;23.75;;;13.80;99.90;;;;;;5008959;28;20022;-61
2021/09/07 03:50:11;;;;;;;49.13;24.55;;;13.80;99.90;;;;;;5008890;28;20049;-61
2021/09/07 03:52:37;;;;;;;45.67;24.73;;;13.70;99.90;;;;;;5008866;28;20076;-62
2021/09/07 03:55:03;;;;;;;47.78;24.80;;;13.70;99.90;;;;;;5012319;28;20103;-61
2021/09/07 03:57:28;;;;;;;41.28;24.13;;;13.60;99.90;;;;;;5012231;28;20176;-62
2021/09/07 03:59:56;;;;;;;42.92;25.10;;;13.60;99.90;;;;;;5012562;28;20587;-59
2021/09/07 04:02:22;;;;;;;47.40;25.73;;;13.60;99.90;;;;;;5011674;28;20022;-60
2021/09/07 04:04:48;;;;;;;45.00;24.88;;;13.60;99.90;;;;;;5012350;28;20034;-61
2021/09/07 04:07:13;;;;;;;42.83;24.95;;;13.60;99.90;;;;;;5012243;28;20449;-61
2021/09/07 04:09:39;;;;;;;46.03;26.02;;;13.60;99.90;;;;;;5011740;28;20535;-62
2021/09/07 04:12:05;;;;;;;45.72;26.23;;;13.60;99.90;;;;;;5007245;28;20030;-61
2021/09/07 04:14:30;;;;;;;42.38;24.15;;;13.60;99.90;;;;;;5011828;28;20018;-61
2021/09/07 04:16:56;;;;;;;42.92;23.55;;;13.60;99.90;;;;;;5010512;28;20450;-61
2021/09/07 04:19:21;;;;;;;47.13;24.33;;;13.70;99.90;;;;;;5012307;28;20097;-61
2021/09/07 04:21:47;;;;;;;40.53;24.38;;;13.70;99.90;;;;;;5008760;28;20030;-60
2021/09/07 04:24:12;;;;;;;46.42;26.00;;;13.70;99.90;;;;;;5012800;28;20120;-61
2021/09/07 04:26:38;;;;;;;43.35;24.92;;;13.70;99.90;;;;;;5008307;28;20472;-59
2021/09/07 04:29:03;;;;;;;49.45;25.42;;;13.70;99.90;;;;;;5012257;28;20109;-61
2021/09/07 04:31:29;;;;;;;44.13;25.85;;;13.70;99.90;;;;;;5012073;28;20140;-60
2021/09/07 04:33:55;;;;;;;47.63;25.02;;;13.70;99.90;;;;;;5011337;28;20041;-64
2021/09/07 04:36:21;;;;;;;46.45;26.17;;;13.70;99.90;;;;;;5011973;28;20041;-61
2021/09/07 04:38:46;;;;;;;41.45;23.63;;;13.70;99.90;;;;;;5011104;28;20119;-61
2021/09/07 04:41:13;;;;;;;43.95;23.38;;;13.80;99.90;;;;;;5010888;28;20026;-61
2021/09/07 04:43:38;;;;;;;43.33;24.50;;;13.80;99.90;;;;;;5025079;28;20030;-61
2021/09/07 04:46:04;;;;;;;44.88;24.85;;;13.80;99.90;;;;;;5012153;28;20038;-61
2021/09/07 04:48:30;;;;;;;40.13;23.65;;;13.70;99.90;;;;;;5011223;28;20026;-62
2021/09/07 04:50:55;;;;;;;50.28;24.65;;;13.80;99.90;;;;;;5011205;28;20030;-61
2021/09/07 04:53:22;;;;;;;40.00;23.27;;;13.80;99.90;;;;;;5012248;28;20065;-61
2021/09/07 04:55:47;;;;;;;42.28;24.25;;;13.70;99.90;;;;;;5007978;28;20033;-59
2021/09/07 04:58:13;;;;;;;43.80;24.65;;;13.70;99.90;;;;;;5010858;28;20034;-61
2021/09/07 05:00:39;;;;;;;51.70;24.88;;;13.70;99.90;;;;;;5006744;28;20029;-62
2021/09/07 05:03:05;;;;;;;39.58;23.30;;;13.70;99.90;;;;;;5011399;28;20022;-62
2021/09/07 05:05:30;;;;;;;45.83;24.80;;;13.70;99.90;;;;;;5011677;28;20034;-62
2021/09/07 05:07:58;;;;;;;44.58;25.83;;;13.70;99.90;;;;;;5009111;28;20022;-62
2021/09/07 05:10:24;;;;;;;50.00;26.65;;;13.70;99.90;;;;;;5008377;28;20026;-63
2021/09/07 05:12:50;;;;;;;45.25;26.23;;;13.70;99.90;;;;;;5010735;28;20030;-62
2021/09/07 05:15:15;;;;;;;43.97;24.90;;;13.70;99.90;;;;;;5009499;28;20041;-63
2021/09/07 05:17:41;;;;;;;46.88;25.00;;;13.70;99.90;;;;;;5010915;28;20033;-63
2021/09/07 05:20:08;;;;;;;46.70;24.95;;;13.80;99.90;;;;;;5007611;28;20030;-63
2021/09/07 05:22:33;;;;;;;41.90;24.05;;;13.90;99.90;;;;;;5006798;28;20040;-63
2021/09/07 05:25:01;;;;;;;39.55;23.58;;;13.90;99.90;;;;;;5008525;28;20046;-63
2021/09/07 05:27:26;;;;;;;47.40;24.67;;;13.90;99.90;;;;;;5010478;28;20033;-62
2021/09/07 05:29:52;;;;;;;51.90;25.05;;;14.00;99.90;;;;;;5010742;28;20029;-62
2021/09/07 05:32:17;;;;;;;49.47;25.10;;;14.10;99.90;;;;;;5008471;28;20045;-62
2021/09/07 05:34:43;;;;;;;46.25;26.27;;;14.10;99.90;;;;;;5011492;28;20022;-62
2021/09/07 05:37:09;;;;;;;39.47;23.45;;;14.10;99.90;;;;;;5009517;28;20482;-61
2021/09/07 05:39:34;;;;;;;44.83;26.45;;;14.20;99.90;;;;;;5010997;28;20056;-62
2021/09/07 05:42:00;;;;;;;46.25;24.00;;;14.30;99.90;;;;;;5009927;28;20037;-60
2021/09/07 05:44:25;;;;;;;46.95;27.02;;;14.30;99.90;;;;;;5009647;28;20030;-61
2021/09/07 05:46:51;;;;;;;47.45;26.70;;;14.40;99.90;;;;;;4999716;28;20038;-62
2021/09/07 05:49:16;;;;;;;53.28;27.42;;;14.40;99.90;;;;;;5005852;28;20026;-61
2021/09/07 05:51:44;;;;;;;45.13;25.85;;;14.50;99.90;;;;;;5010173;28;20032;-62
2021/09/07 05:54:09;;;;;;;46.55;25.90;;;14.60;99.90;;;;;;5009205;28;20033;-62
2021/09/07 05:56:35;;;;;;;41.72;24.35;;;14.70;99.90;;;;;;5010466;28;20406;-62
2021/09/07 05:59:01;;;;;;;45.67;25.55;;;14.70;99.90;;;;;;5011506;28;20030;-62
2021/09/07 06:01:26;;;;;;;49.20;24.20;;;14.70;99.90;;;;;;5011597;28;20025;-62
2021/09/07 06:03:52;;;;;;;44.58;26.08;;;14.80;99.90;;;;;;5010073;28;20026;-62
2021/09/07 06:06:17;;;;;;;47.88;25.15;;;14.80;99.90;;;;;;5010694;28;20029;-61
2021/09/07 06:08:43;;;;;;;41.00;24.13;;;14.80;99.90;;;;;;5009512;28;20030;-62
2021/09/07 06:11:09;;;;;;;47.30;24.50;;;14.90;99.90;;;;;;5007926;28;20076;-62
2021/09/07 06:13:35;;;;;;;47.10;24.90;;;14.90;99.90;;;;;;5011515;28;20026;-62
2021/09/07 06:16:01;;;;;;;41.35;24.80;;;15.00;99.90;;;;;;5010333;28;20468;-61
2021/09/07 06:18:27;;;;;;;49.17;25.65;;;15.10;99.90;;;;;;5009339;28;20034;-62
2021/09/07 06:20:52;;;;;;;42.13;24.38;;;15.20;99.90;;;;;;5010958;28;20030;-62
2021/09/07 06:23:18;;;;;;;41.78;24.10;;;15.30;99.90;;;;;;5011157;28;20490;-60
2021/09/07 06:25:44;;;;;;;51.30;25.50;;;15.40;99.90;;;;;;5009789;28;20095;-60
2021/09/07 06:28:10;;;;;;;42.88;24.52;;;15.40;99.90;;;;;;5010743;28;20040;-62
2021/09/07 06:30:35;;;;;;;43.83;24.00;;;15.40;99.90;;;;;;5010424;28;20026;-62
2021/09/07 06:33:01;;;;;;;41.35;24.42;;;15.50;99.90;;;;;;5010697;28;20029;-62
2021/09/07 06:35:27;;;;;;;46.67;25.17;;;15.60;99.90;;;;;;5010738;28;20060;-62
2021/09/07 06:37:54;;;;;;;43.05;23.85;;;15.60;99.90;;;;;;5010295;28;20030;-62
2021/09/07 06:40:20;;;;;;;40.80;23.50;;;15.60;99.90;;;;;;5010424;28;20030;-61
2021/09/07 06:42:45;;;;;;;43.03;24.63;;;15.70;99.90;;;;;;5010641;28;20175;-62
2021/09/07 06:45:11;;;;;;;45.97;25.77;;;15.70;99.90;;;;;;5009578;28;20104;-62
2021/09/07 06:47:37;;;;;;;54.05;26.33;;;15.70;99.90;;;;;;5005771;28;20150;-62
2021/09/07 06:50:05;;;;;;;39.35;23.55;;;15.80;99.90;;;;;;5008250;28;20039;-62
2021/09/07 06:52:31;;;;;;;46.78;24.95;;;15.90;99.90;;;;;;5009684;28;20030;-61
2021/09/07 06:54:57;;;;;;;45.60;25.20;;;15.90;99.90;;;;;;5010167;28;20030;-62
2021/09/07 06:57:23;;;;;;;38.28;21.80;;;16.00;99.90;;;;;;5008703;28;20034;-62
2021/09/07 06:59:48;;;;;;;40.30;23.70;;;16.00;99.90;;;;;;5010187;28;20532;-62
2021/09/07 07:02:14;;;;;;;40.40;23.85;;;16.10;99.90;;;;;;5010362;28;20481;-62
2021/09/07 07:04:39;;;;;;;43.03;23.48;;;16.20;99.90;;;;;;5008834;28;20049;-62
2021/09/07 07:07:05;;;;;;;46.95;23.98;;;16.30;99.90;;;;;;5010157;28;20401;-62
2021/09/07 07:09:31;;;;;;;42.97;23.30;;;16.30;99.90;;;;;;5009671;28;20065;-62
2021/09/07 07:11:56;;;;;;;39.00;23.75;;;16.40;99.90;;;;;;5010539;28;20117;-62
2021/09/07 07:14:22;;;;;;;43.05;23.92;;;16.50;99.90;;;;;;5009812;28;20030;-62
2021/09/07 07:16:51;;;;;;;40.33;24.25;;;16.50;99.90;;;;;;5009346;28;20030;-62
2021/09/07 07:19:16;;;;;;;41.97;24.25;;;16.60;99.90;;;;;;5003990;28;20030;-62
2021/09/07 07:21:42;;;;;;;48.95;24.20;;;16.60;99.90;;;;;;5005198;28;20564;-62
2021/09/07 07:24:08;;;;;;;42.40;23.52;;;16.60;99.90;;;;;;5006260;28;20038;-62
2021/09/07 07:26:33;;;;;;;42.00;23.45;;;16.60;99.90;;;;;;5010219;28;20033;-62
2021/09/07 07:28:59;;;;;;;45.67;24.35;;;16.70;99.90;;;;;;5005306;28;20417;-62
2021/09/07 07:31:25;;;;;;;44.78;24.88;;;16.80;99.90;;;;;;5012880;28;20064;-61
2021/09/07 07:33:50;;;;;;;44.75;23.33;;;16.80;99.90;;;;;;5014045;28;20018;-62
2021/09/07 07:36:16;;;;;;;39.47;22.75;;;16.90;99.90;;;;;;5011985;28;20053;-62
2021/09/07 07:38:42;;;;;;;38.22;22.58;;;16.90;99.90;;;;;;5012636;28;20030;-62
2021/09/07 07:41:08;;;;;;;47.55;23.95;;;17.00;99.90;;;;;;5012306;28;20030;-62
2021/09/07 07:43:36;;;;;;;43.35;22.40;;;17.00;99.90;;;;;;5011564;28;20160;-62
2021/09/07 07:46:02;;;;;;;50.00;24.38;;;17.20;99.90;;;;;;5014106;28;20053;-62
2021/09/07 07:48:28;;;;;;;38.17;23.00;;;17.20;99.90;;;;;;5013025;28;20421;-62
2021/09/07 07:50:54;;;;;;;37.63;22.92;;;17.30;99.90;;;;;;5009943;28;20037;-62
2021/09/07 07:53:20;;;;;;;39.92;23.95;;;17.40;99.90;;;;;;5013614;28;20069;-62
2021/09/07 07:55:45;;;;;;;41.40;22.77;;;17.40;99.90;;;;;;5009797;28;20030;-61
2021/09/07 07:58:11;;;;;;;39.97;22.42;;;17.40;99.90;;;;;;5012044;28;20026;-61
2021/09/07 08:00:36;;;;;;;38.97;21.52;;;17.50;99.90;;;;;;5013970;28;20409;-62
2021/09/07 08:03:02;;;;;;;46.58;23.92;;;17.60;99.90;;;;;;5013158;28;20065;-61
2021/09/07 08:05:27;;;;;;;42.65;23.52;;;17.60;99.90;;;;;;5008773;28;20403;-62
2021/09/07 08:07:53;;;;;;;41.17;25.08;;;17.70;99.90;;;;;;5013298;28;20026;-61
2021/09/07 08:10:18;;;;;;;44.47;23.88;;;17.70;99.90;;;;;;5012695;28;20030;-61
2021/09/07 08:12:44;;;;;;;39.10;24.05;;;17.70;99.90;;;;;;5013345;28;20026;-61
2021/09/07 08:15:11;;;;;;;62.42;26.42;;;17.80;99.90;;;;;;5012821;28;20097;-60
2021/09/07 08:17:36;;;;;;;41.03;24.77;;;17.80;99.90;;;;;;5012967;28;20401;-60
2021/09/07 08:20:03;;;;;;;51.38;24.33;;;17.90;99.90;;;;;;5013508;28;20029;-61
2021/09/07 08:22:28;;;;;;;42.83;24.52;;;17.90;99.90;;;;;;5011437;28;20021;-61
2021/09/07 08:24:54;;;;;;;47.72;25.30;;;18.00;99.90;;;;;;5013058;28;20111;-61
2021/09/07 08:27:20;;;;;;;42.58;24.65;;;18.00;99.90;;;;;;5013653;28;20114;-61
2021/09/07 08:29:45;;;;;;;44.53;23.55;;;18.20;99.90;;;;;;5013641;28;20026;-62
2021/09/07 08:32:11;;;;;;;40.58;23.35;;;18.30;99.90;;;;;;5013111;28;20497;-61
2021/09/07 08:34:36;;;;;;;42.40;24.25;;;18.40;99.90;;;;;;5013537;28;20018;-63
2021/09/07 08:37:04;;;;;;;41.35;21.55;;;18.60;99.90;;;;;;5009184;28;20030;-62
2021/09/07 08:39:30;;;;;;;42.83;24.58;;;18.60;99.90;;;;;;5010323;28;20037;-62
2021/09/07 08:41:55;;;;;;;41.25;25.40;;;18.70;99.90;;;;;;5011187;28;20038;-62
2021/09/07 08:44:21;;;;;;;45.25;24.88;;;18.70;99.90;;;;;;5013367;28;20037;-62
2021/09/07 08:46:47;;;;;;;53.90;25.67;;;18.70;99.90;;;;;;5012496;28;20540;-62
2021/09/07 08:49:14;;;;;;;37.80;23.30;;;18.70;99.90;;;;;;5012315;28;20065;-62
2021/09/07 08:51:41;;;;;;;45.53;23.17;;;18.80;99.90;;;;;;5011716;28;20125;-62
2021/09/07 08:54:06;;;;;;;40.78;23.35;;;18.90;99.90;;;;;;5012064;28;20045;-62
2021/09/07 08:56:32;;;;;;;39.15;22.52;;;19.10;99.90;;;;;;5011747;28;20493;-61
2021/09/07 08:58:57;;;;;;;39.03;23.42;;;19.20;99.90;;;;;;5012612;28;20026;-62
2021/09/07 09:01:25;;;;;;;38.63;23.25;;;19.30;99.90;;;;;;5012418;28;20485;-62
2021/09/07 09:03:50;;;;;;;43.75;24.25;;;19.50;99.90;;;;;;5013104;28;20394;-62
2021/09/07 09:06:26;;;;;;;41.47;22.65;;;19.40;99.90;;;;;;5012078;28;20022;-62
2021/09/07 09:09:05;;;;;;;45.75;24.80;;;19.50;99.90;;;;;;5013065;28;20489;-62
2021/09/07 09:11:49;;;;;;;46.67;23.67;;;19.50;99.90;;;;;;5011152;28;20081;-62
2021/09/07 09:14:30;;;;;;;42.72;24.20;;;19.60;99.90;;;;;;5012442;28;20018;-62
2021/09/07 09:16:56;;;;;;;44.83;22.35;;;19.70;99.90;;;;;;5012704;28;20034;-62
2021/09/07 09:19:21;;;;;;;38.17;22.67;;;19.80;99.90;;;;;;5011867;28;20091;-60
2021/09/07 09:21:49;;;;;;;42.67;22.17;;;19.80;99.90;;;;;;5012462;28;20034;-62
2021/09/07 09:24:22;;;;;;;43.65;21.77;;;19.90;99.90;;;;;;5010680;28;20026;-62
2021/09/07 09:26:59;;;;;;;42.70;22.23;;;20.00;99.90;;;;;;5012163;28;20026;-62
2021/09/07 09:29:43;;;;;;;35.25;21.75;;;20.10;99.90;;;;;;5011895;28;21520;-62
2021/09/07 09:32:13;;;;;;;37.70;21.80;;;20.10;99.90;;;;;;5012233;28;20022;-62
2021/09/07 09:34:40;;;;;;;42.45;22.95;;;20.10;99.90;;;;;;5012248;28;20180;-61
2021/09/07 09:37:16;;;;;;;39.20;22.20;;;20.10;99.90;;;;;;5008531;28;20026;-60
2021/09/07 09:39:48;;;;;;;45.00;24.00;;;20.20;99.90;;;;;;5006873;28;20040;-62
2021/09/07 09:42:28;;;;;;;38.03;22.33;;;20.20;99.90;;;;;;5028244;23;20049;-58
2021/09/07 09:45:01;;;;;;;40.13;22.88;;;20.20;99.90;;;;;;5007124;28;20056;-59
2021/09/07 09:47:38;;;;;;;43.88;24.77;;;20.30;99.90;;;;;;5011268;28;20021;-57
2021/09/07 09:50:05;;;;;;;41.97;23.23;;;20.30;99.90;;;;;;5011192;28;20668;-60
2021/09/07 09:52:42;;;;;;;40.17;20.92;;;20.30;99.90;;;;;;5001768;28;20030;-57
2021/09/07 09:55:10;;;;;;;44.35;25.35;;;20.40;99.90;;;;;;4988421;28;20049;-58
2021/09/07 09:57:37;;;;;;;37.92;22.20;;;20.50;99.90;;;;;;4985872;28;20113;-57
2021/09/07 10:00:13;;;;;;;37.25;21.83;;;20.70;99.90;;;;;;4989474;28;20030;-60
2021/09/07 10:02:40;;;;;;;40.50;22.05;;;21.00;99.90;;;;;;4984835;28;20081;-57
2021/09/07 10:05:07;;;;;;;35.38;19.90;;;21.30;99.90;;;;;;4986568;28;20046;-58
2021/09/07 10:07:33;;;;;;;36.50;21.65;;;21.50;99.90;;;;;;4986072;28;20057;-59
2021/09/07 10:09:59;;;;;;;37.60;21.58;;;21.70;99.90;;;;;;4984129;28;20030;-58
2021/09/07 10:12:37;;;;;;;38.30;20.60;;;21.80;99.90;;;;;;4988347;28;20374;-58
2021/09/07 10:15:54;;;;;;;36.15;19.58;;;22.00;99.90;;;;;;4984611;28;20034;-59
2021/09/07 10:18:29;;;;;;;33.22;18.75;;;22.20;99.90;;;;;;4985385;28;20567;-57
2021/09/07 10:21:05;;;;;;;35.58;20.83;;;22.60;99.90;;;;;;4987111;28;20058;-59
2021/09/07 10:23:49;;;;;;;38.35;20.75;;;22.80;99.90;;;;;;4983871;28;20398;-58
2021/09/07 10:26:16;;;;;;;;;;;22.80;99.90;;;;;;4980460;28;20030;-55
2021/09/07 10:28:44;;;;;;;31.35;19.02;;;23.10;99.90;;;;;;4979105;28;19918;-57
2021/09/07 10:31:18;;;;;;;32.97;19.27;;;23.00;99.90;;;;;;4984355;28;20026;-57
2021/09/07 10:33:46;;;;;;;36.90;20.40;;;23.20;99.90;;;;;;4984291;28;20042;-58
2021/09/07 10:36:13;;;;;;;37.35;19.40;;;23.30;99.90;;;;;;4986694;28;20065;-55
2021/09/07 10:38:56;;;;;;;37.95;19.00;;;23.30;99.90;;;;;;4985420;28;20109;-58
2021/09/07 10:41:34;;;;;;;32.53;19.33;;;23.30;99.90;;;;;;4981948;28;20039;-57
2021/09/07 10:44:01;;;;;;;31.90;18.05;;;23.50;99.90;;;;;;4983520;28;20410;-54
2021/09/07 10:46:56;;;;;;;33.78;18.02;;;23.70;99.90;;;;;;4987894;28;20026;-57
2021/09/07 10:52:27;;;;;;;31.10;17.85;;;23.50;99.90;;;;;;4987663;28;19910;-60
2021/09/07 10:54:52;;;;;;;26.67;17.50;;;23.80;99.90;;;;;;4984407;28;20030;-59
2021/09/07 10:57:41;;;;;;;30.77;17.58;;;23.90;99.90;;;;;;4981322;28;20112;-60
2021/09/07 11:00:21;;;;;;;29.25;17.73;;;24.20;99.90;;;;;;4985863;28;20064;-60
2021/09/07 11:03:04;;;;;;;24.80;15.95;;;24.40;99.90;;;;;;4986251;28;20117;-60
2021/09/07 11:05:32;;;;;;;30.58;16.02;;;24.20;99.90;;;;;;4988491;28;20037;-58
2021/09/07 11:08:05;;;;;;;23.50;14.52;;;24.40;99.90;;;;;;4988912;28;20038;-59
2021/09/07 11:10:52;;;;;;;23.73;14.40;;;24.30;99.90;;;;;;4984277;28;20162;-60
2021/09/07 11:13:26;;;;;;;27.40;16.73;;;24.50;99.90;;;;;;4986122;28;20394;-55
2021/09/07 11:15:55;;;;;;;;;;;24.70;99.90;;;;;;4988140;28;20186;-58
2021/09/07 11:18:27;;;;;;;27.17;15.05;;;24.50;99.90;;;;;;4987989;28;19952;-59
2021/09/07 11:20:55;;;;;;;27.45;17.27;;;24.50;99.90;;;;;;4989258;28;20410;-60
2021/09/07 11:23:29;;;;;;;21.05;14.57;;;24.60;99.90;;;;;;4989457;28;20022;-61
2021/09/07 11:26:03;;;;;;;;;;;24.80;99.90;;;;;;4983676;28;20038;-60
2021/09/07 11:28:30;;;;;;;24.80;15.52;;;24.90;99.90;;;;;;4989722;28;19913;-56
2021/09/07 11:30:56;;;;;;;20.85;13.55;;;25.20;99.90;;;;;;4983768;28;20077;-57
2021/09/07 11:33:26;;;;;;;26.23;15.05;;;25.10;99.90;;;;;;4986338;28;20093;-57
2021/09/07 11:35:56;;;;;;;24.17;15.02;;;25.30;99.90;;;;;;4987318;28;20121;-60
2021/09/07 11:38:25;;;;;;;24.30;13.45;;;25.40;99.90;;;;;;4985132;28;20028;-57
2021/09/07 11:40:56;;;;;;;21.00;14.40;;;25.70;99.90;;;;;;4989337;28;20037;-57
2021/09/07 11:43:30;;;;;;;31.85;14.93;;;25.70;99.90;;;;;;4983490;28;20066;-59
2021/09/07 11:46:08;;;;;;;;;;;25.80;99.90;;;;;;4989302;28;20030;-59
2021/09/07 11:48:34;;;;;;;22.08;13.50;;;25.80;99.90;;;;;;4988234;28;19960;-58
2021/09/07 11:51:00;;;;;;;25.20;13.43;;;25.70;99.90;;;;;;4985838;28;20469;-59
2021/09/07 11:53:25;;;;;;;21.50;13.98;;;25.70;99.90;;;;;;4988654;28;20030;-59
2021/09/07 11:55:53;;;;;;;25.05;14.75;;;26.10;99.90;;;;;;4990129;28;20037;-59
2021/09/07 11:58:28;;;;;;;24.92;14.05;;;26.10;99.90;;;;;;4989444;28;20088;-61
2021/09/07 12:01:06;;;;;;;23.10;13.07;;;26.20;99.90;;;;;;4989095;28;20034;-60
2021/09/07 12:03:50;;;;;;;24.02;12.55;;;26.40;99.90;;;;;;4988295;28;20035;-61
2021/09/07 12:06:36;;;;;;;;;;;26.40;99.90;;;;;;4990925;28;20034;-56
2021/09/07 12:09:12;;;;;;;21.80;13.13;;;26.50;99.90;;;;;;4985997;28;19968;-58
2021/09/07 12:11:38;;;;;;;15.70;11.82;;;26.90;99.90;;;;;;4988219;28;20022;-57
2021/09/07 12:14:13;;;;;;;19.05;10.90;;;26.90;99.90;;;;;;4990629;28;20034;-58
2021/09/07 12:16:57;;;;;;;20.05;11.25;;;27.00;99.90;;;;;;4992778;28;20021;-59
2021/09/07 12:19:30;;;;;;;18.87;11.47;;;26.80;99.90;;;;;;4990436;28;20030;-57
2021/09/07 12:22:20;;;;;;;18.23;12.43;;;26.70;99.90;;;;;;4988587;28;20042;-60
2021/09/07 12:25:04;;;;;;;25.95;12.95;;;26.80;99.90;;;;;;4987281;28;20041;-59
2021/09/07 12:27:32;;;;;;;16.70;11.05;;;26.60;99.90;;;;;;4992889;28;20638;-59
2021/09/07 12:30:09;;;;;;;16.05;11.38;;;27.00;99.90;;;;;;4993577;28;20042;-59
2021/09/07 12:33:26;;;;;;;20.52;10.93;;;27.10;99.90;;;;;;4987985;28;20026;-58
2021/09/07 12:35:55;;;;;;;17.80;11.00;;;27.40;99.90;;;;;;4966003;28;20524;-54